Time;durP1;ratioP1;P1;durP2;ratioP2;P2;SDS_P1;SDS_P2;PMS_P1;PMS_P2;Temp;Humidity;BMP_temperature;BMP_pressure;BME280_temperature;BME280_humidity;BME280_pressure;Samples;Min_cycle;Max_cycle;Signal;HPM_P1;HPM_P2
2023/04/28 16:26:26;;;;;;;8.32;5.32;;;14.00;99.90;;;;;;5096947;27;20109;-59
2023/04/28 16:28:52;;;;;;;8.63;6.00;;;13.90;99.90;;;;;;5109279;28;20030;-65
2023/04/28 16:31:18;;;;;;;10.20;6.57;;;13.90;99.90;;;;;;5109965;28;20406;-64
2023/04/28 16:33:43;;;;;;;9.38;6.25;;;14.00;99.90;;;;;;5109063;28;20046;-64
2023/04/28 16:36:09;;;;;;;10.88;6.88;;;14.10;99.90;;;;;;5109895;28;20371;-60
2023/04/28 16:38:34;;;;;;;10.75;6.47;;;14.10;99.90;;;;;;5089478;28;20058;-61
2023/04/28 16:41:00;;;;;;;9.93;6.88;;;14.10;99.90;;;;;;5108610;28;20019;-62
2023/04/28 16:43:25;;;;;;;8.90;6.55;;;14.20;99.90;;;;;;5109361;28;20020;-64
2023/04/28 16:45:51;;;;;;;11.10;6.60;;;14.30;99.90;;;;;;5108276;28;20035;-61
2023/04/28 16:48:18;;;;;;;11.35;6.50;;;14.20;99.90;;;;;;5109182;28;20061;-61
2023/04/28 16:50:44;;;;;;;10.50;6.45;;;14.30;99.90;;;;;;5108856;28;20027;-61
2023/04/28 16:53:10;;;;;;;10.23;6.43;;;14.30;99.90;;;;;;5108006;28;20099;-60
2023/04/28 16:55:36;;;;;;;10.20;6.72;;;14.40;99.90;;;;;;5107669;28;20028;-60
2023/04/28 16:58:02;;;;;;;8.45;6.00;;;14.30;99.90;;;;;;5107894;28;20114;-60
2023/04/28 17:00:27;;;;;;;10.40;6.28;;;14.30;99.90;;;;;;5108336;28;20027;-59
2023/04/28 17:03:14;;;;;;;10.32;7.03;;;14.20;99.90;;;;;;4977546;27;4097964;-60
2023/04/28 17:05:39;;;;;;;10.55;6.80;;;14.10;99.90;;;;;;5109281;28;20016;-61
2023/04/28 17:08:05;;;;;;;13.68;7.65;;;14.10;99.90;;;;;;5105656;28;20103;-62
2023/04/28 17:10:31;;;;;;;8.93;6.32;;;14.10;99.90;;;;;;5106912;28;20471;-62
2023/04/28 17:12:56;;;;;;;10.80;6.65;;;14.10;99.90;;;;;;5106497;28;20032;-61
2023/04/28 17:15:22;;;;;;;10.05;6.70;;;14.20;99.90;;;;;;5106292;28;20107;-63
2023/04/28 17:17:49;;;;;;;11.82;7.35;;;14.10;99.90;;;;;;5109370;28;20028;-63
2023/04/28 17:20:18;;;;;;;12.27;7.72;;;14.10;99.90;;;;;;5105740;28;20039;-64
2023/04/28 17:22:47;;;;;;;12.95;7.38;;;14.10;99.90;;;;;;5108944;28;20030;-63
2023/04/28 17:25:14;;;;;;;12.00;7.72;;;14.10;99.90;;;;;;5108808;28;20020;-62
2023/04/28 17:27:40;;;;;;;10.88;7.88;;;14.10;99.90;;;;;;5108562;28;20023;-63
2023/04/28 17:30:10;;;;;;;10.18;7.18;;;14.10;99.90;;;;;;5089652;28;20115;-63
2023/04/28 17:32:36;;;;;;;12.27;8.02;;;14.10;99.90;;;;;;5091104;28;20027;-62
2023/04/28 17:35:02;;;;;;;14.23;8.07;;;14.10;99.90;;;;;;5089935;28;20020;-62
2023/04/28 17:37:30;;;;;;;14.50;7.93;;;14.10;99.90;;;;;;5108656;28;20028;-62
2023/04/28 17:39:55;;;;;;;13.32;8.52;;;14.00;99.90;;;;;;5108549;28;20487;-62
2023/04/28 17:42:21;;;;;;;14.50;8.90;;;14.00;99.90;;;;;;5107887;28;20093;-63
2023/04/28 17:44:46;;;;;;;12.82;8.00;;;14.00;99.90;;;;;;5108556;28;20024;-63
2023/04/28 17:47:13;;;;;;;13.27;8.15;;;13.90;99.90;;;;;;5088993;28;20119;-62
2023/04/28 17:49:39;;;;;;;13.55;9.00;;;13.90;99.90;;;;;;5109011;28;20095;-62
2023/04/28 17:52:04;;;;;;;14.75;9.30;;;13.90;99.90;;;;;;5109104;28;20024;-63
2023/04/28 17:54:32;;;;;;;16.77;9.95;;;13.90;99.90;;;;;;5107706;28;20012;-62
2023/04/28 17:57:01;;;;;;;16.10;10.20;;;13.90;99.90;;;;;;5090415;28;20027;-61
2023/04/28 17:59:27;;;;;;;17.40;10.93;;;13.90;99.90;;;;;;5073273;28;20496;-63
2023/04/28 18:01:54;;;;;;;16.23;10.18;;;13.80;99.90;;;;;;5089632;28;20114;-62
2023/04/28 18:04:20;;;;;;;16.35;10.38;;;13.80;99.90;;;;;;5107107;28;20089;-62
2023/04/28 18:06:46;;;;;;;18.00;10.55;;;13.80;99.90;;;;;;5108700;28;20464;-66
2023/04/28 18:09:12;;;;;;;18.25;10.40;;;13.70;99.90;;;;;;5107455;28;20443;-63
2023/04/28 18:11:38;;;;;;;19.02;11.38;;;13.70;99.90;;;;;;5108600;28;20061;-63
2023/04/28 18:14:03;;;;;;;18.33;10.82;;;13.70;99.90;;;;;;5098064;28;20070;-63
2023/04/28 18:16:29;;;;;;;18.75;10.35;;;13.70;99.90;;;;;;5093625;28;20020;-62
2023/04/28 18:18:55;;;;;;;17.55;10.75;;;13.70;99.90;;;;;;5094685;28;20519;-63
2023/04/28 18:21:21;;;;;;;17.27;9.63;;;13.70;99.90;;;;;;5093788;28;20039;-63
2023/04/28 18:23:47;;;;;;;15.73;9.98;;;13.70;99.90;;;;;;5093993;28;20080;-64
2023/04/28 18:26:12;;;;;;;14.68;9.77;;;13.70;99.90;;;;;;5075962;28;20012;-63
2023/04/28 18:28:38;;;;;;;18.92;9.80;;;13.70;99.90;;;;;;5094393;28;20028;-62
2023/04/28 18:31:05;;;;;;;13.75;9.02;;;13.60;99.90;;;;;;5093865;28;20130;-62
2023/04/28 18:33:32;;;;;;;14.43;9.10;;;13.60;99.90;;;;;;5093874;28;20028;-63
2023/04/28 18:35:59;;;;;;;14.18;8.80;;;13.60;99.90;;;;;;5093500;28;20093;-62
2023/04/28 18:38:25;;;;;;;14.55;8.35;;;13.60;99.90;;;;;;5093136;28;20020;-62
2023/04/28 18:40:51;;;;;;;12.05;7.60;;;13.50;99.90;;;;;;5093879;28;20031;-62
2023/04/28 18:43:16;;;;;;;11.68;7.93;;;13.50;99.90;;;;;;5093691;28;20036;-62
2023/04/28 18:45:43;;;;;;;12.00;7.38;;;13.50;99.90;;;;;;5093386;28;20378;-62
2023/04/28 18:48:09;;;;;;;11.07;7.22;;;13.50;99.90;;;;;;5075619;28;20031;-63
2023/04/28 18:50:35;;;;;;;11.77;7.40;;;13.40;99.90;;;;;;5075363;28;20032;-63
2023/04/28 18:53:01;;;;;;;8.20;5.65;;;13.40;99.90;;;;;;5094022;28;20119;-62
2023/04/28 18:55:27;;;;;;;7.90;4.90;;;13.40;99.90;;;;;;5093333;28;20047;-62
2023/04/28 18:57:52;;;;;;;6.95;3.88;;;13.40;99.90;;;;;;5093290;28;20032;-62
2023/04/28 19:00:18;;;;;;;7.82;4.43;;;13.30;99.90;;;;;;5075386;28;20034;-62
2023/04/28 19:02:44;;;;;;;9.23;3.97;;;13.30;99.90;;;;;;5093545;28;20040;-63
2023/04/28 19:05:10;;;;;;;7.72;4.32;;;13.30;99.90;;;;;;5093008;28;20047;-64
2023/04/28 19:07:37;;;;;;;7.45;4.32;;;13.20;99.90;;;;;;5094270;28;20024;-62
2023/04/28 19:10:03;;;;;;;7.72;4.35;;;13.10;99.90;;;;;;5093354;28;20035;-62
2023/04/28 19:12:30;;;;;;;9.60;4.70;;;13.10;99.90;;;;;;5092259;28;20024;-62
2023/04/28 19:14:56;;;;;;;10.77;5.68;;;13.10;99.90;;;;;;5093996;28;20020;-62
2023/04/28 19:17:22;;;;;;;8.93;5.25;;;13.00;99.90;;;;;;5074735;28;20047;-62
2023/04/28 19:19:48;;;;;;;9.10;5.30;;;13.00;99.90;;;;;;5092850;28;20055;-62
2023/04/28 19:22:37;;;;;;;11.10;7.00;;;12.90;99.90;;;;;;5092920;28;20555;-63
2023/04/28 19:25:04;;;;;;;11.55;5.80;;;12.90;99.90;;;;;;5091801;28;20543;-62
2023/04/28 19:27:35;;;;;;;11.07;6.22;;;12.90;99.90;;;;;;5086299;28;20065;-65
2023/04/28 19:30:01;;;;;;;;;;;12.80;99.90;;;;;;5093822;28;20016;-63
2023/04/28 19:32:27;;;;;;;14.25;7.30;;;12.80;99.90;;;;;;5092082;28;20239;-62
2023/04/28 19:34:53;;;;;;;13.45;6.97;;;12.80;99.90;;;;;;5092558;28;20020;-63
2023/04/28 19:37:19;;;;;;;15.65;7.72;;;12.80;99.90;;;;;;5092212;28;20024;-63
2023/04/28 19:39:46;;;;;;;14.05;7.10;;;12.70;99.90;;;;;;5092396;28;20046;-62
2023/04/28 19:42:12;;;;;;;16.02;7.55;;;12.70;99.90;;;;;;5092430;28;20044;-62
2023/04/28 19:44:38;;;;;;;16.42;7.80;;;12.70;99.90;;;;;;5092629;28;20031;-61
2023/04/28 19:47:04;;;;;;;17.40;8.35;;;12.70;99.90;;;;;;5091487;28;20040;-61
2023/04/28 19:49:30;;;;;;;14.90;8.23;;;12.70;99.90;;;;;;5092598;28;20055;-64
2023/04/28 19:51:57;;;;;;;19.15;8.80;;;12.70;99.90;;;;;;5074717;28;20046;-62
2023/04/28 19:54:22;;;;;;;17.77;8.02;;;12.60;99.90;;;;;;5073585;28;20032;-62
2023/04/28 19:56:48;;;;;;;17.08;8.63;;;12.60;99.90;;;;;;5091957;28;20028;-62
2023/04/28 19:59:14;;;;;;;16.85;8.57;;;12.60;99.90;;;;;;5092681;28;20086;-62
2023/04/28 20:01:42;;;;;;;17.70;9.95;;;12.60;99.90;;;;;;5091936;28;20036;-62
2023/04/28 20:04:08;;;;;;;17.98;9.50;;;12.50;99.90;;;;;;5092071;28;20026;-63
2023/04/28 20:06:34;;;;;;;19.98;9.55;;;12.50;99.90;;;;;;5092765;28;20103;-62
2023/04/28 20:09:00;;;;;;;20.73;10.13;;;12.50;99.90;;;;;;5091463;28;20042;-61
2023/04/28 20:11:26;;;;;;;19.17;10.20;;;12.40;99.90;;;;;;5092344;28;20503;-62
2023/04/28 20:13:52;;;;;;;22.85;10.57;;;12.40;99.90;;;;;;5092647;28;20107;-62
2023/04/28 20:16:19;;;;;;;19.77;9.82;;;12.50;99.90;;;;;;5091158;28;20415;-63
2023/04/28 20:18:45;;;;;;;21.77;10.82;;;12.40;99.90;;;;;;5073840;28;20069;-62
2023/04/28 20:21:11;;;;;;;19.73;10.43;;;12.40;99.90;;;;;;5091829;28;20043;-62
2023/04/28 20:23:36;;;;;;;22.98;11.05;;;12.40;99.90;;;;;;5091124;28;20472;-62
2023/04/28 20:26:04;;;;;;;21.58;12.05;;;12.40;99.90;;;;;;5092296;28;20088;-63
2023/04/28 20:28:30;;;;;;;19.80;10.90;;;12.30;99.90;;;;;;5092307;28;20024;-61
2023/04/28 20:30:55;;;;;;;23.95;11.25;;;12.30;99.90;;;;;;5091225;28;20061;-61
